sensor_id;sensor_type;location;lat;lon;timestamp;pressure;altitude;pressure_sealevel;temperature;humidity
12358;BME280;6243;51.244;6.774;2022-10-16T00:00:43;154120.22;;;26.30;48.80
12358;BME280;6243;51.244;6.774;2022-10-16T00:03:09;154037.84;;;25.97;49.13
12358;BME280;6243;51.244;6.774;2022-10-16T00:05:38;154112.47;;;26.27;48.25
12358;BME280;6243;51.244;6.774;2022-10-16T00:08:05;154198.72;;;26.60;47.59
12358;BME280;6243;51.244;6.774;2022-10-16T00:10:31;154246.31;;;26.79;46.99
12358;BME280;6243;51.244;6.774;2022-10-16T00:12:57;154197.41;;;26.60;47.70
12358;BME280;6243;51.244;6.774;2022-10-16T00:15:22;153865.53;;;25.30;50.05
12358;BME280;6243;51.244;6.774;2022-10-16T00:17:48;154086.78;;;26.17;48.25
12358;BME280;6243;51.244;6.774;2022-10-16T00:20:13;153949.13;;;25.63;49.47
12358;BME280;6243;51.244;6.774;2022-10-16T00:22:39;154050.72;;;26.02;48.53
12358;BME280;6243;51.244;6.774;2022-10-16T00:25:05;154127.94;;;26.33;47.77
12358;BME280;6243;51.244;6.774;2022-10-16T00:27:32;153942.69;;;25.60;49.49
12358;BME280;6243;51.244;6.774;2022-10-16T00:29:58;154080.34;;;26.14;48.58
12358;BME280;6243;51.244;6.774;2022-10-16T00:32:23;154172.97;;;26.50;47.58
12358;BME280;6243;51.244;6.774;2022-10-16T00:34:49;154028.88;;;25.94;49.12
12358;BME280;6243;51.244;6.774;2022-10-16T00:37:14;154248.91;;;26.80;47.04
12358;BME280;6243;51.244;6.774;2022-10-16T00:39:40;154210.28;;;26.65;47.21
12358;BME280;6243;51.244;6.774;2022-10-16T00:42:05;154093.22;;;26.19;47.49
12358;BME280;6243;51.244;6.774;2022-10-16T00:44:49;154192.28;;;26.58;47.15
12358;BME280;6243;51.244;6.774;2022-10-16T00:47:18;154102.22;;;26.23;47.63
12358;BME280;6243;51.244;6.774;2022-10-16T00:49:44;154175.50;;;26.51;47.25
12358;BME280;6243;51.244;6.774;2022-10-16T00:52:11;154264.34;;;26.86;46.08
12358;BME280;6243;51.244;6.774;2022-10-16T00:54:38;154205.09;;;26.63;47.01
12358;BME280;6243;51.244;6.774;2022-10-16T00:57:06;154398.22;;;27.38;45.44
12358;BME280;6243;51.244;6.774;2022-10-16T00:59:33;154371.16;;;27.28;45.63
12358;BME280;6243;51.244;6.774;2022-10-16T01:02:01;154391.75;;;27.36;45.11
12358;BME280;6243;51.244;6.774;2022-10-16T01:04:30;154255.34;;;26.83;46.17
12358;BME280;6243;51.244;6.774;2022-10-16T01:07:03;154145.97;;;26.40;46.88
12358;BME280;6243;51.244;6.774;2022-10-16T01:09:36;154145.97;;;26.40;46.72
12358;BME280;6243;51.244;6.774;2022-10-16T01:12:09;154264.34;;;26.86;46.22
12358;BME280;6243;51.244;6.774;2022-10-16T01:14:41;154207.69;;;26.64;46.38
12358;BME280;6243;51.244;6.774;2022-10-16T01:17:15;154297.84;;;26.99;46.12
12358;BME280;6243;51.244;6.774;2022-10-16T01:20:10;154175.50;;;26.51;46.75
12358;BME280;6243;51.244;6.774;2022-10-16T01:22:47;154247.63;;;26.80;46.16
12358;BME280;6243;51.244;6.774;2022-10-16T01:25:20;154286.25;;;26.95;45.59
12358;BME280;6243;51.244;6.774;2022-10-16T01:27:50;154216.69;;;26.67;46.16
12358;BME280;6243;51.244;6.774;2022-10-16T01:30:19;154207.69;;;26.64;46.31
12358;BME280;6243;51.244;6.774;2022-10-16T01:32:50;154084.19;;;26.16;47.13
12358;BME280;6243;51.244;6.774;2022-10-16T01:35:21;154037.84;;;25.97;47.34
12358;BME280;6243;51.244;6.774;2022-10-16T01:37:51;154076.47;;;26.13;47.14
12358;BME280;6243;51.244;6.774;2022-10-16T01:40:20;153690.72;;;24.61;50.01
12358;BME280;6243;51.244;6.774;2022-10-16T01:42:52;153940.16;;;25.59;48.85
12358;BME280;6243;51.244;6.774;2022-10-16T01:45:19;153896.34;;;25.42;49.26
12358;BME280;6243;51.244;6.774;2022-10-16T01:47:46;154131.78;;;26.34;47.24
12358;BME280;6243;51.244;6.774;2022-10-16T01:50:15;153761.47;;;24.89;50.37
12358;BME280;6243;51.244;6.774;2022-10-16T01:52:44;153711.25;;;24.69;50.37
12358;BME280;6243;51.244;6.774;2022-10-16T01:55:13;153812.84;;;25.09;49.91
12358;BME280;6243;51.244;6.774;2022-10-16T01:57:42;153954.25;;;25.65;48.57
12358;BME280;6243;51.244;6.774;2022-10-16T02:00:12;154124.06;;;26.31;47.46
12358;BME280;6243;51.244;6.774;2022-10-16T02:02:40;154154.94;;;26.43;46.77
12358;BME280;6243;51.244;6.774;2022-10-16T02:05:11;153969.72;;;25.71;48.24
12358;BME280;6243;51.244;6.774;2022-10-16T02:07:38;153917.00;;;25.50;48.41
12358;BME280;6243;51.244;6.774;2022-10-16T02:10:04;153843.66;;;25.21;49.44
12358;BME280;6243;51.244;6.774;2022-10-16T02:12:32;153877.13;;;25.34;48.51
12358;BME280;6243;51.244;6.774;2022-10-16T02:14:58;154097.06;;;26.21;47.54
12358;BME280;6243;51.244;6.774;2022-10-16T02:17:25;153978.69;;;25.74;48.09
12358;BME280;6243;51.244;6.774;2022-10-16T02:19:53;153842.41;;;25.21;49.30
12358;BME280;6243;51.244;6.774;2022-10-16T02:22:22;154037.84;;;25.97;48.46
12358;BME280;6243;51.244;6.774;2022-10-16T02:24:54;154037.84;;;25.97;48.08
12358;BME280;6243;51.244;6.774;2022-10-16T02:27:25;154024.97;;;25.92;48.11
12358;BME280;6243;51.244;6.774;2022-10-16T02:29:55;154111.25;;;26.26;47.37
12358;BME280;6243;51.244;6.774;2022-10-16T02:32:28;153874.53;;;25.33;49.36
12358;BME280;6243;51.244;6.774;2022-10-16T02:34:56;153862.97;;;25.29;49.31
12358;BME280;6243;51.244;6.774;2022-10-16T02:37:24;153989.03;;;25.78;48.74
12358;BME280;6243;51.244;6.774;2022-10-16T02:39:50;153983.84;;;25.76;48.33
12358;BME280;6243;51.244;6.774;2022-10-16T02:42:18;154066.13;;;26.08;47.80
12358;BME280;6243;51.244;6.774;2022-10-16T02:44:43;154088.09;;;26.17;47.36
12358;BME280;6243;51.244;6.774;2022-10-16T02:47:09;154118.91;;;26.29;46.97
12358;BME280;6243;51.244;6.774;2022-10-16T02:49:36;154009.56;;;25.86;47.69
12358;BME280;6243;51.244;6.774;2022-10-16T02:52:01;153951.72;;;25.64;47.67
12358;BME280;6243;51.244;6.774;2022-10-16T02:54:27;153842.41;;;25.21;49.12
12358;BME280;6243;51.244;6.774;2022-10-16T02:56:52;153749.88;;;24.85;50.38
12358;BME280;6243;51.244;6.774;2022-10-16T02:59:18;154059.69;;;26.06;47.47
12358;BME280;6243;51.244;6.774;2022-10-16T03:01:43;154118.91;;;26.29;47.05
12358;BME280;6243;51.244;6.774;2022-10-16T03:04:09;154183.25;;;26.54;46.12
12358;BME280;6243;51.244;6.774;2022-10-16T03:06:35;153856.53;;;25.26;47.98
12358;BME280;6243;51.244;6.774;2022-10-16T03:09:01;154117.63;;;26.29;46.79
12358;BME280;6243;51.244;6.774;2022-10-16T03:11:26;154120.22;;;26.30;46.60
12358;BME280;6243;51.244;6.774;2022-10-16T03:13:52;154302.97;;;27.01;44.75
12358;BME280;6243;51.244;6.774;2022-10-16T03:16:17;154090.63;;;26.18;46.47
12358;BME280;6243;51.244;6.774;2022-10-16T03:18:43;154130.50;;;26.34;45.98
12358;BME280;6243;51.244;6.774;2022-10-16T03:21:08;154005.72;;;25.85;46.88
12358;BME280;6243;51.244;6.774;2022-10-16T03:23:35;154021.16;;;25.91;46.92
12358;BME280;6243;51.244;6.774;2022-10-16T03:26:01;153914.41;;;25.49;47.47
12358;BME280;6243;51.244;6.774;2022-10-16T03:28:26;153882.25;;;25.36;47.37
12358;BME280;6243;51.244;6.774;2022-10-16T03:30:52;153955.56;;;25.65;47.44
12358;BME280;6243;51.244;6.774;2022-10-16T03:33:17;154032.72;;;25.95;46.54
12358;BME280;6243;51.244;6.774;2022-10-16T03:35:43;154091.94;;;26.19;46.62
12358;BME280;6243;51.244;6.774;2022-10-16T03:38:15;154059.69;;;26.06;46.29
12358;BME280;6243;51.244;6.774;2022-10-16T03:40:42;154175.50;;;26.51;45.89
12358;BME280;6243;51.244;6.774;2022-10-16T03:43:08;154268.22;;;26.88;44.91
12358;BME280;6243;51.244;6.774;2022-10-16T03:45:33;154234.75;;;26.74;45.12
12358;BME280;6243;51.244;6.774;2022-10-16T03:47:58;154044.28;;;26.00;46.40
12358;BME280;6243;51.244;6.774;2022-10-16T03:50:24;154086.78;;;26.17;46.33
12358;BME280;6243;51.244;6.774;2022-10-16T03:52:49;153886.09;;;25.38;48.20
12358;BME280;6243;51.244;6.774;2022-10-16T03:55:15;154010.88;;;25.87;46.30
12358;BME280;6243;51.244;6.774;2022-10-16T03:57:42;154181.94;;;26.54;45.40
12358;BME280;6243;51.244;6.774;2022-10-16T04:00:08;154053.25;;;26.03;46.43
12358;BME280;6243;51.244;6.774;2022-10-16T04:02:34;154104.81;;;26.24;45.33
12358;BME280;6243;51.244;6.774;2022-10-16T04:04:59;154199.97;;;26.61;44.87
12358;BME280;6243;51.244;6.774;2022-10-16T04:07:25;153989.03;;;25.78;46.48
12358;BME280;6243;51.244;6.774;2022-10-16T04:09:50;153737.03;;;24.80;48.61
12358;BME280;6243;51.244;6.774;2022-10-16T04:12:16;154041.69;;;25.99;46.34
12358;BME280;6243;51.244;6.774;2022-10-16T04:14:43;154057.16;;;26.05;46.29
12358;BME280;6243;51.244;6.774;2022-10-16T04:17:08;154133.09;;;26.35;45.21
12358;BME280;6243;51.244;6.774;2022-10-16T04:19:34;154095.78;;;26.20;45.66
12358;BME280;6243;51.244;6.774;2022-10-16T04:21:59;153913.16;;;25.49;47.57
12358;BME280;6243;51.244;6.774;2022-10-16T04:24:25;153893.81;;;25.41;47.62
12358;BME280;6243;51.244;6.774;2022-10-16T04:26:50;153882.25;;;25.36;47.62
12358;BME280;6243;51.244;6.774;2022-10-16T04:29:16;154040.44;;;25.98;45.77
12358;BME280;6243;51.244;6.774;2022-10-16T04:31:42;153951.72;;;25.64;47.01
12358;BME280;6243;51.244;6.774;2022-10-16T04:34:08;153796.16;;;25.03;48.46
12358;BME280;6243;51.244;6.774;2022-10-16T04:36:33;153958.16;;;25.66;46.10
12358;BME280;6243;51.244;6.774;2022-10-16T04:38:59;153982.59;;;25.76;46.74
12358;BME280;6243;51.244;6.774;2022-10-16T04:41:24;154109.94;;;26.26;45.47
12358;BME280;6243;51.244;6.774;2022-10-16T04:43:50;154099.66;;;26.22;45.00
12358;BME280;6243;51.244;6.774;2022-10-16T04:46:15;154012.16;;;25.87;46.18
12358;BME280;6243;51.244;6.774;2022-10-16T04:48:42;153879.66;;;25.35;47.10
12358;BME280;6243;51.244;6.774;2022-10-16T04:51:07;153968.41;;;25.70;46.82
12358;BME280;6243;51.244;6.774;2022-10-16T04:53:33;153998.00;;;25.82;45.59
12358;BME280;6243;51.244;6.774;2022-10-16T04:55:58;154091.94;;;26.19;45.93
12358;BME280;6243;51.244;6.774;2022-10-16T04:58:24;153964.59;;;25.69;46.34
12358;BME280;6243;51.244;6.774;2022-10-16T05:00:49;153999.28;;;25.82;46.42
12358;BME280;6243;51.244;6.774;2022-10-16T05:03:15;153850.09;;;25.24;47.67
12358;BME280;6243;51.244;6.774;2022-10-16T05:05:44;153873.22;;;25.33;46.86
12358;BME280;6243;51.244;6.774;2022-10-16T05:08:10;153945.28;;;25.61;46.97
12358;BME280;6243;51.244;6.774;2022-10-16T05:10:35;154010.88;;;25.87;46.35
12358;BME280;6243;51.244;6.774;2022-10-16T05:13:00;153964.59;;;25.69;46.69
12358;BME280;6243;51.244;6.774;2022-10-16T05:15:26;153826.97;;;25.15;47.76
12358;BME280;6243;51.244;6.774;2022-10-16T05:17:53;153888.69;;;25.39;47.31
12358;BME280;6243;51.244;6.774;2022-10-16T05:20:18;153887.38;;;25.38;47.16
12358;BME280;6243;51.244;6.774;2022-10-16T05:22:45;153976.16;;;25.73;46.64
12358;BME280;6243;51.244;6.774;2022-10-16T05:25:10;153846.25;;;25.22;47.27
12358;BME280;6243;51.244;6.774;2022-10-16T05:27:36;153744.69;;;24.83;48.42
12358;BME280;6243;51.244;6.774;2022-10-16T05:30:02;154013.41;;;25.88;46.01
12358;BME280;6243;51.244;6.774;2022-10-16T05:32:27;153917.00;;;25.50;46.90
12358;BME280;6243;51.244;6.774;2022-10-16T05:34:53;153965.84;;;25.69;46.31
12358;BME280;6243;51.244;6.774;2022-10-16T05:37:18;153965.84;;;25.69;46.38
12358;BME280;6243;51.244;6.774;2022-10-16T05:39:45;153989.03;;;25.78;46.34
12358;BME280;6243;51.244;6.774;2022-10-16T05:42:10;153999.28;;;25.82;46.26
12358;BME280;6243;51.244;6.774;2022-10-16T05:44:36;154048.13;;;26.01;46.20
12358;BME280;6243;51.244;6.774;2022-10-16T05:47:01;153737.03;;;24.80;48.03
12358;BME280;6243;51.244;6.774;2022-10-16T05:49:27;153767.84;;;24.92;48.37
12358;BME280;6243;51.244;6.774;2022-10-16T05:51:52;153607.22;;;24.29;49.73
12358;BME280;6243;51.244;6.774;2022-10-16T05:54:18;153793.56;;;25.02;48.04
12358;BME280;6243;51.244;6.774;2022-10-16T05:56:45;153933.72;;;25.57;46.85
12358;BME280;6243;51.244;6.774;2022-10-16T05:59:10;154021.16;;;25.91;45.94
12358;BME280;6243;51.244;6.774;2022-10-16T06:01:36;153625.19;;;24.36;49.78
12358;BME280;6243;51.244;6.774;2022-10-16T06:04:02;153816.69;;;25.11;48.21
12358;BME280;6243;51.244;6.774;2022-10-16T06:06:28;153927.28;;;25.54;47.34
12358;BME280;6243;51.244;6.774;2022-10-16T06:08:55;154024.97;;;25.92;46.30
12358;BME280;6243;51.244;6.774;2022-10-16T06:11:22;153888.69;;;25.39;47.30
12358;BME280;6243;51.244;6.774;2022-10-16T06:13:50;153740.88;;;24.81;48.16
12358;BME280;6243;51.244;6.774;2022-10-16T06:16:16;153762.69;;;24.90;48.59
12358;BME280;6243;51.244;6.774;2022-10-16T06:18:42;153839.81;;;25.20;47.91
12358;BME280;6243;51.244;6.774;2022-10-16T06:21:09;153639.34;;;24.41;49.72
12358;BME280;6243;51.244;6.774;2022-10-16T06:23:35;153947.88;;;25.62;46.85
12358;BME280;6243;51.244;6.774;2022-10-16T06:26:05;153766.59;;;24.91;49.18
12358;BME280;6243;51.244;6.774;2022-10-16T06:28:30;153821.81;;;25.13;48.02
12358;BME280;6243;51.244;6.774;2022-10-16T06:31:00;153886.09;;;25.38;47.82
12358;BME280;6243;51.244;6.774;2022-10-16T06:33:25;153807.72;;;25.07;48.90
12358;BME280;6243;51.244;6.774;2022-10-16T06:35:51;153816.69;;;25.11;48.66
12358;BME280;6243;51.244;6.774;2022-10-16T06:38:16;153771.72;;;24.93;48.44
12358;BME280;6243;51.244;6.774;2022-10-16T06:40:42;153811.56;;;25.09;49.09
12358;BME280;6243;51.244;6.774;2022-10-16T06:43:07;154046.88;;;26.01;47.00
12358;BME280;6243;51.244;6.774;2022-10-16T06:45:32;154122.81;;;26.31;46.48
12358;BME280;6243;51.244;6.774;2022-10-16T06:47:59;153755.03;;;24.87;48.96
12358;BME280;6243;51.244;6.774;2022-10-16T06:50:25;153842.41;;;25.21;47.93
12358;BME280;6243;51.244;6.774;2022-10-16T06:52:50;154005.72;;;25.85;47.49
12358;BME280;6243;51.244;6.774;2022-10-16T06:55:16;153945.28;;;25.61;47.61
12358;BME280;6243;51.244;6.774;2022-10-16T06:57:42;153927.28;;;25.54;47.77
12358;BME280;6243;51.244;6.774;2022-10-16T07:00:08;153841.13;;;25.20;49.07
12358;BME280;6243;51.244;6.774;2022-10-16T07:02:33;153808.97;;;25.08;49.42
12358;BME280;6243;51.244;6.774;2022-10-16T07:05:00;154059.69;;;26.06;47.01
12358;BME280;6243;51.244;6.774;2022-10-16T07:07:26;154167.81;;;26.48;46.32
12358;BME280;6243;51.244;6.774;2022-10-16T07:09:51;154120.22;;;26.30;46.83
12358;BME280;6243;51.244;6.774;2022-10-16T07:12:17;154372.47;;;27.28;44.58
12358;BME280;6243;51.244;6.774;2022-10-16T07:14:42;154018.56;;;25.90;47.21
12358;BME280;6243;51.244;6.774;2022-10-16T07:17:08;154073.91;;;26.12;46.45
12358;BME280;6243;51.244;6.774;2022-10-16T07:19:33;153886.09;;;25.38;48.41
12358;BME280;6243;51.244;6.774;2022-10-16T07:22:00;153868.09;;;25.31;48.40
12358;BME280;6243;51.244;6.774;2022-10-16T07:24:26;153866.78;;;25.30;48.39
12358;BME280;6243;51.244;6.774;2022-10-16T07:26:51;154127.94;;;26.33;46.68
12358;BME280;6243;51.244;6.774;2022-10-16T07:29:19;154167.81;;;26.48;46.38
12358;BME280;6243;51.244;6.774;2022-10-16T07:31:45;154043.00;;;25.99;47.59
12358;BME280;6243;51.244;6.774;2022-10-16T07:34:12;153996.69;;;25.81;47.41
12358;BME280;6243;51.244;6.774;2022-10-16T07:36:38;153915.72;;;25.50;49.02
12358;BME280;6243;51.244;6.774;2022-10-16T07:39:05;154080.34;;;26.14;47.53
12358;BME280;6243;51.244;6.774;2022-10-16T07:41:30;154066.13;;;26.08;47.53
12358;BME280;6243;51.244;6.774;2022-10-16T07:43:56;153873.22;;;25.33;48.77
12358;BME280;6243;51.244;6.774;2022-10-16T07:46:22;154286.25;;;26.95;46.69
12358;BME280;6243;51.244;6.774;2022-10-16T07:48:48;154116.38;;;26.28;47.40
12358;BME280;6243;51.244;6.774;2022-10-16T07:51:15;154485.78;;;27.73;45.20
12358;BME280;6243;51.244;6.774;2022-10-16T07:53:41;154296.53;;;26.99;46.14
12358;BME280;6243;51.244;6.774;2022-10-16T07:56:08;154479.31;;;27.70;45.34
12358;BME280;6243;51.244;6.774;2022-10-16T07:58:34;154542.47;;;27.95;45.05
12358;BME280;6243;51.244;6.774;2022-10-16T08:01:04;154859.47;;;29.19;42.90
12358;BME280;6243;51.244;6.774;2022-10-16T08:03:30;154416.25;;;27.46;45.32
12358;BME280;6243;51.244;6.774;2022-10-16T08:05:56;154588.88;;;28.13;45.27
12358;BME280;6243;51.244;6.774;2022-10-16T08:08:22;154644.22;;;28.35;44.06
12358;BME280;6243;51.244;6.774;2022-10-16T08:10:47;154769.25;;;28.84;42.75
12358;BME280;6243;51.244;6.774;2022-10-16T08:13:14;154508.94;;;27.82;44.61
12358;BME280;6243;51.244;6.774;2022-10-16T08:15:40;154873.66;;;29.24;42.51
12358;BME280;6243;51.244;6.774;2022-10-16T08:18:05;154837.53;;;29.10;42.66
12358;BME280;6243;51.244;6.774;2022-10-16T08:20:32;154944.56;;;29.52;42.27
12358;BME280;6243;51.244;6.774;2022-10-16T08:22:58;154949.72;;;29.54;42.38
12358;BME280;6243;51.244;6.774;2022-10-16T08:25:25;154554.09;;;27.99;44.35
12358;BME280;6243;51.244;6.774;2022-10-16T08:27:51;154720.28;;;28.64;42.92
12358;BME280;6243;51.244;6.774;2022-10-16T08:30:20;154660.97;;;28.41;43.42
12358;BME280;6243;51.244;6.774;2022-10-16T08:32:46;155094.13;;;30.10;41.35
12358;BME280;6243;51.244;6.774;2022-10-16T08:35:12;155104.44;;;30.14;40.40
12358;BME280;6243;51.244;6.774;2022-10-16T08:37:38;154967.75;;;29.61;41.12
12358;BME280;6243;51.244;6.774;2022-10-16T08:40:06;155152.22;;;30.33;40.70
12358;BME280;6243;51.244;6.774;2022-10-16T08:42:47;155179.31;;;30.44;39.92
12358;BME280;6243;51.244;6.774;2022-10-16T08:45:31;155522.63;;;31.78;38.15
12358;BME280;6243;51.244;6.774;2022-10-16T08:48:06;155092.84;;;30.10;41.11
12358;BME280;6243;51.244;6.774;2022-10-16T08:50:38;155415.44;;;31.36;38.73
12358;BME280;6243;51.244;6.774;2022-10-16T08:53:05;155623.38;;;32.17;37.13
12358;BME280;6243;51.244;6.774;2022-10-16T08:55:34;155780.97;;;32.78;36.92
12358;BME280;6243;51.244;6.774;2022-10-16T08:58:10;155821.00;;;32.94;36.15
12358;BME280;6243;51.244;6.774;2022-10-16T09:00:38;155994.22;;;33.62;35.63
12358;BME280;6243;51.244;6.774;2022-10-16T09:03:11;155992.97;;;33.61;36.02
12358;BME280;6243;51.244;6.774;2022-10-16T09:05:52;156073.06;;;33.92;35.17
12358;BME280;6243;51.244;6.774;2022-10-16T09:08:27;156087.28;;;33.98;35.31
12358;BME280;6243;51.244;6.774;2022-10-16T09:10:56;155999.38;;;33.64;35.22
12358;BME280;6243;51.244;6.774;2022-10-16T09:13:27;155600.16;;;32.08;36.17
12358;BME280;6243;51.244;6.774;2022-10-16T09:16:02;155986.50;;;33.58;34.74
12358;BME280;6243;51.244;6.774;2022-10-16T09:18:40;156051.13;;;33.84;33.42
12358;BME280;6243;51.244;6.774;2022-10-16T09:21:15;155987.75;;;33.59;34.29
12358;BME280;6243;51.244;6.774;2022-10-16T09:23:43;156011.00;;;33.68;34.70
12358;BME280;6243;51.244;6.774;2022-10-16T09:26:12;156123.50;;;34.12;34.37
12358;BME280;6243;51.244;6.774;2022-10-16T09:28:38;156168.81;;;34.30;33.44
12358;BME280;6243;51.244;6.774;2022-10-16T09:31:05;156330.47;;;34.92;32.66
12358;BME280;6243;51.244;6.774;2022-10-16T09:33:35;156484.50;;;35.52;32.87
12358;BME280;6243;51.244;6.774;2022-10-16T09:36:03;156641.09;;;36.13;31.43
12358;BME280;6243;51.244;6.774;2022-10-16T09:38:31;156665.69;;;36.23;30.89
12358;BME280;6243;51.244;6.774;2022-10-16T09:40:58;156764.13;;;36.61;30.71
12358;BME280;6243;51.244;6.774;2022-10-16T09:43:26;156615.19;;;36.03;31.25
12358;BME280;6243;51.244;6.774;2022-10-16T09:45:55;156344.66;;;34.98;31.34
12358;BME280;6243;51.244;6.774;2022-10-16T09:48:22;156493.53;;;35.56;30.46
12358;BME280;6243;51.244;6.774;2022-10-16T09:50:55;156946.72;;;37.32;29.44
12358;BME280;6243;51.244;6.774;2022-10-16T09:53:21;156824.97;;;36.85;29.36
12358;BME280;6243;51.244;6.774;2022-10-16T09:55:49;156999.88;;;37.53;29.57
12358;BME280;6243;51.244;6.774;2022-10-16T09:58:16;156959.75;;;37.37;29.71
12358;BME280;6243;51.244;6.774;2022-10-16T10:00:42;157106.16;;;37.94;28.16
12358;BME280;6243;51.244;6.774;2022-10-16T10:03:32;157167.00;;;38.18;28.35
12358;BME280;6243;51.244;6.774;2022-10-16T10:05:59;157217.63;;;38.38;27.82
12358;BME280;6243;51.244;6.774;2022-10-16T10:08:25;157151.47;;;38.12;28.07
12358;BME280;6243;51.244;6.774;2022-10-16T10:10:51;157357.63;;;38.92;27.51
12358;BME280;6243;51.244;6.774;2022-10-16T10:13:18;157360.19;;;38.93;26.42
12358;BME280;6243;51.244;6.774;2022-10-16T10:15:44;157365.44;;;38.95;26.48
12358;BME280;6243;51.244;6.774;2022-10-16T10:18:16;157347.28;;;38.88;25.91
12358;BME280;6243;51.244;6.774;2022-10-16T10:20:44;157487.31;;;39.42;26.30
12358;BME280;6243;51.244;6.774;2022-10-16T10:23:21;157207.28;;;38.33;26.22
12358;BME280;6243;51.244;6.774;2022-10-16T10:25:54;156538.78;;;35.74;28.29
12358;BME280;6243;51.244;6.774;2022-10-16T10:31:17;157257.78;;;38.53;26.71
12358;BME280;6243;51.244;6.774;2022-10-16T10:33:49;157501.56;;;39.48;25.70
12358;BME280;6243;51.244;6.774;2022-10-16T10:36:27;157659.84;;;40.09;25.26
12358;BME280;6243;51.244;6.774;2022-10-16T10:38:58;157438.03;;;39.23;25.41
12358;BME280;6243;51.244;6.774;2022-10-16T10:41:52;157449.72;;;39.28;25.42
12358;BME280;6243;51.244;6.774;2022-10-16T10:44:27;157252.63;;;38.51;26.11
12358;BME280;6243;51.244;6.774;2022-10-16T10:47:05;157344.66;;;38.87;25.71
12358;BME280;6243;51.244;6.774;2022-10-16T10:49:45;157471.72;;;39.36;25.30
12358;BME280;6243;51.244;6.774;2022-10-16T10:52:34;157800.03;;;40.64;24.51
12358;BME280;6243;51.244;6.774;2022-10-16T10:55:12;158002.56;;;41.42;24.13
12358;BME280;6243;51.244;6.774;2022-10-16T10:57:45;158209.06;;;42.22;22.61
12358;BME280;6243;51.244;6.774;2022-10-16T11:00:20;158320.78;;;42.66;22.24
12358;BME280;6243;51.244;6.774;2022-10-16T11:02:52;158289.59;;;42.54;22.66
12358;BME280;6243;51.244;6.774;2022-10-16T11:05:31;158613.19;;;43.79;21.46
12358;BME280;6243;51.244;6.774;2022-10-16T11:08:08;158953.94;;;45.11;20.39
12358;BME280;6243;51.244;6.774;2022-10-16T11:10:42;158807.00;;;44.54;19.82
12358;BME280;6243;51.244;6.774;2022-10-16T11:13:21;158105.16;;;41.82;22.48
12358;BME280;6243;51.244;6.774;2022-10-16T11:15:52;158587.25;;;43.69;21.05
12358;BME280;6243;51.244;6.774;2022-10-16T11:18:22;159383.44;;;46.77;18.62
12358;BME280;6243;51.244;6.774;2022-10-16T11:20:52;158853.78;;;44.72;19.95
12358;BME280;6243;51.244;6.774;2022-10-16T11:23:25;158935.75;;;45.04;19.17
12358;BME280;6243;51.244;6.774;2022-10-16T11:25:54;158171.44;;;42.08;21.62
12358;BME280;6243;51.244;6.774;2022-10-16T11:28:26;158929.22;;;45.01;20.06
12358;BME280;6243;51.244;6.774;2022-10-16T11:30:59;158618.44;;;43.81;20.41
12358;BME280;6243;51.244;6.774;2022-10-16T11:33:30;158808.25;;;44.55;19.37
12358;BME280;6243;51.244;6.774;2022-10-16T11:36:03;158079.19;;;41.72;22.23
12358;BME280;6243;51.244;6.774;2022-10-16T11:38:34;159953.91;;;48.98;16.72
12358;BME280;6243;51.244;6.774;2022-10-16T11:41:04;160478.00;;;51.00;15.85
12358;BME280;6243;51.244;6.774;2022-10-16T11:43:37;160972.56;;;52.91;14.29
12358;BME280;6243;51.244;6.774;2022-10-16T11:46:09;160466.28;;;50.96;14.65
12358;BME280;6243;51.244;6.774;2022-10-16T11:48:41;159775.41;;;48.29;16.39
12358;BME280;6243;51.244;6.774;2022-10-16T11:51:14;158228.56;;;42.30;20.48
12358;BME280;6243;51.244;6.774;2022-10-16T11:53:45;157461.38;;;39.32;23.95
12358;BME280;6243;51.244;6.774;2022-10-16T11:56:14;157230.59;;;38.43;24.69
12358;BME280;6243;51.244;6.774;2022-10-16T11:58:48;157071.13;;;37.81;25.40
12358;BME280;6243;51.244;6.774;2022-10-16T12:01:19;156678.66;;;36.28;27.27
12358;BME280;6243;51.244;6.774;2022-10-16T12:03:56;156727.84;;;36.47;27.40
12358;BME280;6243;51.244;6.774;2022-10-16T12:06:31;156665.69;;;36.23;27.61
12358;BME280;6243;51.244;6.774;2022-10-16T12:09:01;156067.91;;;33.90;29.02
12358;BME280;6243;51.244;6.774;2022-10-16T12:11:36;156309.75;;;34.84;28.23
12358;BME280;6243;51.244;6.774;2022-10-16T12:14:32;156471.50;;;35.47;27.89
12358;BME280;6243;51.244;6.774;2022-10-16T12:17:00;156456.00;;;35.41;28.23
12358;BME280;6243;51.244;6.774;2022-10-16T12:19:26;156065.31;;;33.89;29.97
12358;BME280;6243;51.244;6.774;2022-10-16T12:21:55;156016.22;;;33.70;30.23
12358;BME280;6243;51.244;6.774;2022-10-16T12:24:30;155716.41;;;32.53;31.33
12358;BME280;6243;51.244;6.774;2022-10-16T12:26:56;155691.81;;;32.44;31.85
12358;BME280;6243;51.244;6.774;2022-10-16T12:29:31;155998.13;;;33.63;31.25
12358;BME280;6243;51.244;6.774;2022-10-16T12:31:57;155181.88;;;30.45;34.22
12358;BME280;6243;51.244;6.774;2022-10-16T12:34:27;155620.78;;;32.16;32.19
12358;BME280;6243;51.244;6.774;2022-10-16T12:36:53;155728.03;;;32.58;31.01
12358;BME280;6243;51.244;6.774;2022-10-16T12:39:21;155836.50;;;33.00;31.52
12358;BME280;6243;51.244;6.774;2022-10-16T12:42:00;156034.28;;;33.77;30.66
12358;BME280;6243;51.244;6.774;2022-10-16T12:44:32;155925.69;;;33.35;31.13
12358;BME280;6243;51.244;6.774;2022-10-16T12:46:58;155911.47;;;33.29;31.51
12358;BME280;6243;51.244;6.774;2022-10-16T12:49:31;155912.78;;;33.30;31.21
12358;BME280;6243;51.244;6.774;2022-10-16T12:51:58;155607.84;;;32.11;32.57
12358;BME280;6243;51.244;6.774;2022-10-16T12:54:27;155955.41;;;33.46;31.37
12358;BME280;6243;51.244;6.774;2022-10-16T12:57:08;156020.09;;;33.72;31.16
12358;BME280;6243;51.244;6.774;2022-10-16T12:59:42;155737.03;;;32.61;32.12
12358;BME280;6243;51.244;6.774;2022-10-16T13:02:28;155802.94;;;32.87;31.78
12358;BME280;6243;51.244;6.774;2022-10-16T13:05:12;155888.22;;;33.20;31.18
12358;BME280;6243;51.244;6.774;2022-10-16T13:07:52;155921.84;;;33.33;31.22
12358;BME280;6243;51.244;6.774;2022-10-16T13:10:25;156020.09;;;33.72;30.68